Birsk, Russia
Current Conditions -  °F | °C
As of 9:00 AM on Thursday 27 Nov 2014 (Local Time) from UWUU Reporting Station
Light Snow Light Snow  
Wind Chill: -7°   Ceiling: 900
Heat Index: -7°   Visibility: 2.5mi
Dew Point: -8°   Wind: 0mph
Humidity: 93%   Direction: NA
Pressure: 30.42"   Gusts: NA
Location:  55.42°N, 55.54°E
Report Text: UWUU 270400Z 00000MPS 4000 -SN BR OVC009 M07/M08 Q1030 82421048TEMPO 1800 SN FZDZ BKN006 640000 RMK QFE761/1015 MOD ICE INC
Loading
Personal Weather Stations






























Interactive Weather Map New forecast layout! Learn more

10-Day Weather Forecast

Advertisements
Track Severe Weather on mobile